createdAt,value
2024-04-23T00:01:16.852Z,7.6
2024-04-23T00:03:42.094Z,7.4
2024-04-23T00:06:08.770Z,9.2
2024-04-23T00:08:35.448Z,8.6
2024-04-23T00:11:02.136Z,8
2024-04-23T00:13:28.836Z,8.6
2024-04-23T00:15:55.511Z,8.2
2024-04-23T00:18:22.202Z,7.7
2024-04-23T00:20:48.890Z,8
2024-04-23T00:23:15.585Z,8
2024-04-23T00:25:42.247Z,9.8
2024-04-23T00:28:09.021Z,6.6
2024-04-23T00:30:35.618Z,11.2
2024-04-23T00:33:02.310Z,8.7
2024-04-23T00:35:27.546Z,8.7
2024-04-23T00:37:54.234Z,9.4
2024-04-23T00:40:20.892Z,7.9
2024-04-23T00:42:47.590Z,8.6
2024-04-23T00:45:14.272Z,9.9
2024-04-23T00:47:40.979Z,9.6
2024-04-23T00:50:07.641Z,11.4
2024-04-23T00:52:34.335Z,7.6
2024-04-23T00:55:01.018Z,12.9
2024-04-23T00:57:27.282Z,11.2
2024-04-23T00:59:53.952Z,10.6
2024-04-23T01:02:20.699Z,8.9
2024-04-23T01:04:47.339Z,11
2024-04-23T01:07:12.546Z,10.3
2024-04-23T01:09:39.238Z,10.3
2024-04-23T01:12:06.141Z,9
2024-04-23T01:14:32.641Z,15.1
2024-04-23T01:16:59.308Z,7.9
2024-04-23T01:19:25.975Z,9.5
2024-04-23T01:21:52.661Z,9
2024-04-23T01:24:19.352Z,9
2024-04-23T01:26:46.056Z,9.4
2024-04-23T01:29:12.710Z,8.4
2024-04-23T01:31:39.412Z,8.5
2024-04-23T01:34:06.105Z,8.4
2024-04-23T01:36:32.777Z,8.7
2024-04-23T01:38:59.459Z,10.1
2024-04-23T01:41:24.704Z,7.2
2024-04-23T01:43:51.379Z,8.2
2024-04-23T01:46:18.064Z,9.4
2024-04-23T01:48:44.739Z,12.5
2024-04-23T01:51:11.426Z,9.3
2024-04-23T01:53:38.116Z,8.9
2024-04-23T01:56:04.084Z,6.7
2024-04-23T01:58:30.770Z,8.1
2024-04-23T02:00:57.474Z,9.9
2024-04-23T02:03:24.099Z,8.1
2024-04-23T02:05:50.561Z,8
2024-04-23T02:08:17.241Z,9.5
2024-04-23T02:10:43.935Z,10.2
2024-04-23T02:13:09.255Z,10.5
2024-04-23T02:15:35.880Z,8.3
2024-04-23T02:18:02.540Z,8
2024-04-23T02:20:29.211Z,8.2
2024-04-23T02:22:55.912Z,9
2024-04-23T02:25:22.595Z,6.9
2024-04-23T02:27:49.286Z,10.9
2024-04-23T02:30:16.034Z,8.9
2024-04-23T02:32:42.660Z,8.1
2024-04-23T02:35:09.344Z,8.5
2024-04-23T02:37:36.026Z,8.4
2024-04-23T02:40:02.744Z,11.1
2024-04-23T02:42:29.111Z,8.1
2024-04-23T02:44:54.351Z,9
2024-04-23T02:47:21.047Z,8.7
2024-04-23T02:49:46.999Z,12.2
2024-04-23T02:52:13.694Z,9.9
2024-04-23T02:54:40.370Z,7.5
2024-04-23T02:57:07.052Z,7.4
2024-04-23T02:59:33.765Z,10.5
2024-04-23T03:02:00.432Z,10.9
2024-04-23T03:04:27.121Z,10.3
2024-04-23T03:06:53.812Z,9.3
2024-04-23T03:09:20.504Z,13.2
2024-04-23T03:11:47.187Z,10
2024-04-23T03:14:13.863Z,11.9
2024-04-23T03:16:39.080Z,10.3
2024-04-23T03:19:05.776Z,10.7
2024-04-23T03:21:32.457Z,11.8
2024-04-23T03:23:59.137Z,19.7
2024-04-23T03:26:25.811Z,19.3
2024-04-23T03:28:52.503Z,8.9
2024-04-23T03:31:19.190Z,13.2
2024-04-23T03:33:45.868Z,13.8
2024-04-23T03:36:12.552Z,22.1
2024-04-23T03:38:39.266Z,20.8
2024-04-23T03:41:05.934Z,19.5
2024-04-23T03:43:32.626Z,26.2
2024-04-23T03:45:59.295Z,20.8
2024-04-23T03:48:24.542Z,14.6
2024-04-23T03:50:51.218Z,13.8
2024-04-23T03:53:17.927Z,14.2
2024-04-23T03:55:44.588Z,12.5
2024-04-23T03:58:11.306Z,11.4
2024-04-23T04:00:37.968Z,9.3
2024-04-23T04:03:04.650Z,10.6
2024-04-23T04:05:31.331Z,8.8
2024-04-23T04:07:58.031Z,10.3
2024-04-23T04:10:24.698Z,11.1
2024-04-23T04:12:51.412Z,8.9
2024-04-23T04:15:18.080Z,12.4
2024-04-23T04:17:44.742Z,9.8
2024-04-23T04:20:11.647Z,8.9
2024-04-23T04:22:36.670Z,10
2024-04-23T04:25:03.358Z,9.9
2024-04-23T04:27:30.084Z,10.5
2024-04-23T04:29:56.774Z,10.8
2024-04-23T04:32:23.559Z,13.1
2024-04-23T04:34:50.196Z,10.4
2024-04-23T04:37:16.786Z,9.5
2024-04-23T04:39:43.482Z,11.5
2024-04-23T04:42:10.314Z,9.8
2024-04-23T04:44:36.824Z,9.9
2024-04-23T04:47:03.502Z,9.4
2024-04-23T04:49:30.216Z,10.8
2024-04-23T04:51:56.885Z,9.8
2024-04-23T04:54:22.183Z,10.7
2024-04-23T04:56:48.796Z,10.6
2024-04-23T04:59:15.472Z,10.9
2024-04-23T05:01:40.795Z,9.3
2024-04-23T05:04:07.387Z,10.3
2024-04-23T05:06:34.086Z,11
2024-04-23T05:09:00.764Z,12.1
2024-04-23T05:11:27.467Z,11.1
2024-04-23T05:13:54.137Z,12.1
2024-04-23T05:16:21.042Z,10.2
2024-04-23T05:18:47.505Z,11.3
2024-04-23T05:21:14.258Z,8.3
2024-04-23T05:23:40.863Z,11.9
2024-04-23T05:26:07.584Z,11.2
2024-04-23T05:28:34.263Z,10.8
2024-04-23T05:31:00.931Z,11.7
2024-04-23T05:33:26.165Z,9.2
2024-04-23T05:35:52.938Z,10.7
2024-04-23T05:38:19.553Z,8.1
2024-04-23T05:40:46.218Z,8.7
2024-04-23T05:43:12.910Z,10.5
2024-04-23T05:45:39.595Z,12
2024-04-23T05:48:06.267Z,10
2024-04-23T05:50:33.051Z,10.8
2024-04-23T05:52:59.643Z,13.9
2024-04-23T05:55:26.333Z,10.3
2024-04-23T05:57:53.005Z,10
2024-04-23T06:00:19.701Z,10.2
2024-04-23T06:02:46.449Z,11
2024-04-23T06:05:11.601Z,10.6
2024-04-23T06:07:38.277Z,9.5
2024-04-23T06:10:04.990Z,13.3
2024-04-23T06:12:31.655Z,11.2
2024-04-23T06:14:58.330Z,12.9
2024-04-23T06:17:25.024Z,15.5
2024-04-23T06:19:51.719Z,14.4
2024-04-23T06:22:18.415Z,14.7
2024-04-23T06:24:45.095Z,19.1
2024-04-23T06:27:11.774Z,13.3
2024-04-23T06:29:38.452Z,9.7
2024-04-23T06:32:05.252Z,8.4
2024-04-23T06:34:31.815Z,11.8
2024-04-23T06:36:57.046Z,9.8
2024-04-23T06:39:23.780Z,10
2024-04-23T06:41:50.124Z,9.4
2024-04-23T06:44:16.832Z,7.7
2024-04-23T06:46:43.502Z,7.8
2024-04-23T06:49:10.190Z,7
2024-04-23T06:51:36.879Z,6.7
2024-04-23T06:54:03.659Z,7.2
2024-04-23T06:56:30.273Z,7.1
2024-04-23T06:58:56.930Z,6.7
2024-04-23T07:01:23.691Z,6.6
2024-04-23T07:03:50.303Z,7
2024-04-23T07:06:16.987Z,6.4
2024-04-23T07:08:42.259Z,7.4
2024-04-23T07:11:08.896Z,7.4
2024-04-23T07:13:35.597Z,7.2
2024-04-23T07:16:02.269Z,5.8
2024-04-23T07:18:28.953Z,6.9
2024-04-23T07:20:55.659Z,6.1
2024-04-23T07:23:22.337Z,5.6
2024-04-23T07:25:49.009Z,6.3
2024-04-23T07:28:15.696Z,5.7
2024-04-23T07:30:42.401Z,5.5
2024-04-23T07:33:09.066Z,6.1
2024-04-23T07:35:35.750Z,7.1
2024-04-23T07:38:02.521Z,9.5
2024-04-23T07:40:27.738Z,7.9
2024-04-23T07:42:54.336Z,8.3
2024-04-23T07:45:21.027Z,7.4
2024-04-23T07:47:47.713Z,6.9
2024-04-23T07:50:14.471Z,6.7
2024-04-23T07:52:41.391Z,7.5
2024-04-23T07:55:07.146Z,7.5
2024-04-23T07:57:33.902Z,8
2024-04-23T08:00:00.647Z,6.4
2024-04-23T08:02:27.258Z,6.8
2024-04-23T08:04:53.966Z,7.7
2024-04-23T08:07:20.064Z,6.6
2024-04-23T08:09:46.760Z,6.2
2024-04-23T08:12:12.088Z,6.3
2024-04-23T08:14:38.604Z,5.7
2024-04-23T08:17:05.242Z,6.3
2024-04-23T08:19:32.047Z,5.8
2024-04-23T08:21:58.663Z,5.8
2024-04-23T08:24:25.295Z,6.1
2024-04-23T08:26:51.986Z,5.5
2024-04-23T08:29:18.670Z,5.5
2024-04-23T08:31:45.335Z,5.8
2024-04-23T08:34:12.107Z,6.6
2024-04-23T08:36:38.851Z,5.5
2024-04-23T08:39:04.726Z,5.9
2024-04-23T08:41:31.398Z,6.7
2024-04-23T08:43:56.563Z,5.9
2024-04-23T08:46:22.628Z,6.6
2024-04-23T08:48:49.319Z,6
2024-04-23T08:51:15.909Z,5.1
2024-04-23T08:53:42.725Z,5.7
2024-04-23T08:56:09.290Z,6.1
2024-04-23T08:58:36.247Z,5.2
2024-04-23T09:01:02.879Z,5
2024-04-23T09:03:29.341Z,5.8
2024-04-23T09:08:22.721Z,5.1
2024-04-23T09:10:49.390Z,5.2
2024-04-23T09:13:16.115Z,6.5
2024-04-23T09:15:41.454Z,6
2024-04-23T09:18:07.973Z,5.5
2024-04-23T09:20:34.684Z,6.8
2024-04-23T09:23:01.415Z,5.6
2024-04-23T09:25:28.040Z,5.6
2024-04-23T09:27:54.727Z,4.8
2024-04-23T09:30:21.400Z,5.1
2024-04-23T09:32:48.089Z,5.2
2024-04-23T09:35:14.784Z,4.8
2024-04-23T09:37:41.455Z,5.1
2024-04-23T09:40:08.202Z,4.5
2024-04-23T09:42:35.052Z,6.2
2024-04-23T09:45:01.733Z,4.9
2024-04-23T09:47:26.842Z,5.1
2024-04-23T09:49:53.430Z,4.5
2024-04-23T09:52:20.087Z,5.1
2024-04-23T09:54:46.847Z,5
2024-04-23T09:57:13.564Z,5.2
2024-04-23T09:59:40.232Z,5.5
2024-04-23T10:02:06.816Z,5.1
2024-04-23T10:04:33.730Z,4.6
2024-04-23T10:07:00.262Z,5.2
2024-04-23T10:09:26.908Z,5.6
2024-04-23T10:11:53.575Z,6.1
2024-04-23T10:14:20.252Z,5.7
2024-04-23T10:16:46.948Z,4.6
2024-04-23T10:19:12.198Z,4.9
2024-04-23T10:21:38.874Z,4.6
2024-04-23T10:24:05.580Z,4.9
2024-04-23T10:26:32.213Z,5.6
2024-04-23T10:28:58.888Z,4.5
2024-04-23T10:31:25.594Z,6.5
2024-04-23T10:33:52.250Z,4.1
2024-04-23T10:36:18.943Z,5.5
2024-04-23T10:38:45.637Z,5.3
2024-04-23T10:41:12.426Z,4.7
2024-04-23T10:43:39.065Z,5.3
2024-04-23T10:46:05.687Z,5.6
2024-04-23T10:48:32.368Z,4.2
2024-04-23T10:50:59.063Z,4.9
2024-04-23T10:53:25.749Z,6.2
2024-04-23T10:55:50.957Z,7
2024-04-23T10:58:17.640Z,4.7
2024-04-23T11:00:44.336Z,5
2024-04-23T11:03:11.169Z,6.3
2024-04-23T11:05:37.769Z,6.3
2024-04-23T11:08:04.379Z,6.2
2024-04-23T11:10:31.163Z,6
2024-04-23T11:12:57.742Z,5.6
2024-04-23T11:15:24.431Z,6.2
2024-04-23T11:17:51.160Z,5.7
2024-04-23T11:20:17.792Z,6.5
2024-04-23T11:22:44.612Z,5.8
2024-04-23T11:25:11.165Z,6.5
2024-04-23T11:27:36.402Z,6
2024-04-23T11:30:02.232Z,5.2
2024-04-23T11:32:28.925Z,6.5
2024-04-23T11:34:55.589Z,5.8
2024-04-23T11:37:22.288Z,7.5
2024-04-23T11:39:48.980Z,6.2
2024-04-23T11:42:14.979Z,6.3
2024-04-23T11:44:41.534Z,5.2
2024-04-23T11:47:08.438Z,4.9
2024-04-23T11:49:34.921Z,4.8
2024-04-23T11:52:01.601Z,7.3
2024-04-23T11:54:28.278Z,7.2
2024-04-23T11:56:55.080Z,5.5
2024-04-23T11:59:20.206Z,5.2
2024-04-23T12:01:46.879Z,4.8
2024-04-23T12:04:13.557Z,4.8
2024-04-23T12:06:40.269Z,6.1
2024-04-23T12:09:06.884Z,5.7
2024-04-23T12:11:33.578Z,6.1
2024-04-23T12:14:00.250Z,6.2
2024-04-23T12:16:26.920Z,5.1
2024-04-23T12:18:53.634Z,6
2024-04-23T12:21:20.292Z,6.6
2024-04-23T12:23:46.974Z,5.6
2024-04-23T12:26:13.724Z,5.7
2024-04-23T12:28:40.692Z,6.1
2024-04-23T12:31:07.345Z,4.1
2024-04-23T12:33:33.945Z,4.8
2024-04-23T12:35:59.222Z,4
2024-04-23T12:38:25.899Z,5.9
2024-04-23T12:40:52.541Z,6.2
2024-04-23T12:43:19.005Z,6.5
2024-04-23T12:45:45.720Z,5.1
2024-04-23T12:48:12.684Z,5.7
2024-04-23T12:50:39.367Z,5.3
2024-04-23T12:53:05.819Z,7.7
2024-04-23T12:55:32.657Z,6
2024-04-23T12:57:59.281Z,7.1
2024-04-23T13:00:25.995Z,5.1
2024-04-23T13:02:52.724Z,5.4
2024-04-23T13:05:19.261Z,4.6
2024-04-23T13:07:44.582Z,4.7
2024-04-23T13:10:11.475Z,4.9
2024-04-23T13:12:36.396Z,4.6
2024-04-23T13:17:30.012Z,4.9
2024-04-23T13:19:56.691Z,5.2
2024-04-23T13:22:23.237Z,5.4
2024-04-23T13:24:49.965Z,4.7
2024-04-23T13:27:16.426Z,5
2024-04-23T13:32:10.106Z,7.1
2024-04-23T13:34:36.466Z,14.2
2024-04-23T13:37:03.263Z,6.2
2024-04-23T13:39:30.225Z,6.5
2024-04-23T13:41:56.626Z,4.1
2024-04-23T13:44:23.542Z,4.4
2024-04-23T13:46:48.785Z,4.1
2024-04-23T13:49:15.448Z,4.7
2024-04-23T13:51:41.793Z,5.8
2024-04-23T13:54:08.488Z,4.9
2024-04-23T13:56:35.568Z,4.4
2024-04-23T13:59:02.375Z,4.9
2024-04-23T14:01:28.541Z,4.5
2024-04-23T14:03:55.328Z,5.1
2024-04-23T14:06:22.153Z,4.6
2024-04-23T14:08:48.671Z,11.2
2024-04-23T14:11:15.473Z,6.6
2024-04-23T14:13:42.318Z,5.4
2024-04-23T14:16:08.693Z,4.7
2024-04-23T14:18:35.454Z,4.1
2024-04-23T14:21:00.586Z,6.3
2024-04-23T14:23:27.343Z,7.3
2024-04-23T14:25:54.205Z,7.6
2024-04-23T14:28:20.811Z,4.7
2024-04-23T14:30:47.397Z,6
2024-04-23T14:33:14.163Z,5.6
2024-04-23T14:35:40.682Z,4.9
2024-04-23T14:38:07.670Z,4.9
2024-04-23T14:40:34.173Z,4.8
2024-04-23T14:45:27.516Z,3.6
2024-04-23T14:47:54.076Z,6.2
2024-04-23T14:50:20.821Z,3.9
2024-04-23T14:52:46.041Z,4.1
2024-04-23T14:55:12.667Z,4.2
2024-04-23T14:57:39.368Z,3.7
2024-04-23T15:00:06.034Z,3.9
2024-04-23T15:02:32.717Z,4.4
2024-04-23T15:04:59.424Z,5
2024-04-23T15:07:26.134Z,5.7
2024-04-23T15:09:53.045Z,6.1
2024-04-23T15:12:19.472Z,4.3
2024-04-23T15:14:46.168Z,5.4
2024-04-23T15:17:12.833Z,7.9
2024-04-23T15:19:39.535Z,3.8
2024-04-23T15:22:06.199Z,4.7
2024-04-23T15:24:31.420Z,4.3
2024-04-23T15:26:58.112Z,5.7
2024-04-23T15:29:23.825Z,8.1
2024-04-23T15:31:50.508Z,6.2
2024-04-23T15:34:17.206Z,4
2024-04-23T15:36:43.886Z,6.7
2024-04-23T15:39:10.585Z,4.6
2024-04-23T15:41:37.289Z,5.1
2024-04-23T15:44:03.945Z,6.3
2024-04-23T15:46:30.627Z,4.1
2024-04-23T15:48:57.310Z,4
2024-04-23T15:51:23.996Z,4.8
2024-04-23T15:53:50.676Z,4.3
2024-04-23T15:56:15.933Z,4.2
2024-04-23T15:58:42.585Z,4.6
2024-04-23T16:01:09.270Z,4.9
2024-04-23T16:03:35.960Z,4.1
2024-04-23T16:06:02.648Z,4.9
2024-04-23T16:08:29.330Z,3.9
2024-04-23T16:10:56.031Z,5
2024-04-23T16:13:22.708Z,5.2
2024-04-23T16:15:49.380Z,6
2024-04-23T16:18:16.069Z,4.2
2024-04-23T16:20:42.755Z,4.2
2024-04-23T16:23:08.433Z,4.1
2024-04-23T16:25:35.148Z,4.7
2024-04-23T16:28:00.340Z,4.3
2024-04-23T16:30:27.010Z,5.4
2024-04-23T16:32:53.699Z,4.5
2024-04-23T16:35:20.383Z,4
2024-04-23T16:37:47.074Z,4.4
2024-04-23T16:40:13.776Z,4.4
2024-04-23T16:42:40.083Z,5.1
2024-04-23T16:45:06.792Z,4.1
2024-04-23T16:47:33.463Z,3.5
2024-04-23T16:50:00.142Z,4.5
2024-04-23T16:52:26.828Z,5.4
2024-04-23T16:54:52.781Z,5.5
2024-04-23T16:57:19.460Z,4.4
2024-04-23T16:59:46.144Z,5.1
2024-04-23T17:02:12.828Z,5.1
2024-04-23T17:04:38.078Z,4.2
2024-04-23T17:07:04.740Z,4.8
2024-04-23T17:09:31.418Z,4.2
2024-04-23T17:11:58.104Z,4.3
2024-04-23T17:14:24.793Z,5
2024-04-23T17:16:51.471Z,3.8
2024-04-23T17:19:17.377Z,6.1
2024-04-23T17:21:44.059Z,5.3
2024-04-23T17:26:37.424Z,4.4
2024-04-23T17:29:04.117Z,5.7
2024-04-23T17:31:29.896Z,5.2
2024-04-23T17:33:56.588Z,4.7
2024-04-23T17:36:23.250Z,4.3
2024-04-23T17:38:48.504Z,7
2024-04-23T17:41:15.172Z,4.4
2024-04-23T17:43:41.853Z,4.1
2024-04-23T17:46:08.548Z,5
2024-04-23T17:48:35.223Z,3.4
2024-04-23T17:51:01.916Z,3.8
2024-04-23T17:53:28.601Z,6.5
2024-04-23T17:55:55.278Z,5.8
2024-04-23T17:58:21.958Z,4.7
2024-04-23T18:00:48.655Z,3.6
2024-04-23T18:03:15.330Z,3.5
2024-04-23T18:05:42.021Z,3.2
2024-04-23T18:08:08.700Z,3.8
2024-04-23T18:10:33.917Z,6.7
2024-04-23T18:13:00.607Z,3.5
2024-04-23T18:15:27.280Z,3.7
2024-04-23T18:17:54.005Z,3.4
2024-04-23T18:20:20.664Z,3.6
2024-04-23T18:22:46.541Z,3.8
2024-04-23T18:25:13.209Z,4.1
2024-04-23T18:27:39.919Z,4.6
2024-04-23T18:30:06.587Z,5
2024-04-23T18:32:33.268Z,6.8
2024-04-23T18:34:59.955Z,5.2
2024-04-23T18:37:26.656Z,4.7
2024-04-23T18:39:53.323Z,5
2024-04-23T18:42:19.994Z,4.8
2024-04-23T18:44:45.228Z,5.8
2024-04-23T18:47:11.919Z,4.6
2024-04-23T18:49:38.617Z,4.9
2024-04-23T18:52:05.428Z,4.9
2024-04-23T18:54:31.959Z,4
2024-04-23T18:56:58.647Z,3.3
2024-04-23T18:59:25.341Z,4.3
2024-04-23T19:01:52.014Z,3.9
2024-04-23T19:04:18.698Z,3.9
2024-04-23T19:06:45.386Z,4.1
2024-04-23T19:09:12.079Z,3.1
2024-04-23T19:11:38.752Z,4.6
2024-04-23T19:14:05.128Z,3.7
2024-04-23T19:16:30.367Z,3.6
2024-04-23T19:18:57.049Z,3.5
2024-04-23T19:21:23.723Z,4.5
2024-04-23T19:23:50.423Z,5.9
2024-04-23T19:26:17.118Z,6
2024-04-23T19:28:43.781Z,5.3
2024-04-23T19:31:10.496Z,5
2024-04-23T19:33:37.161Z,5.8
2024-04-23T19:36:03.849Z,7.2
2024-04-23T19:38:30.530Z,7
2024-04-23T19:40:57.229Z,7.2
2024-04-23T19:43:23.893Z,5.3
2024-04-23T19:45:50.578Z,5.7
2024-04-23T19:48:17.264Z,5.5
2024-04-23T19:50:42.503Z,5.7
2024-04-23T19:53:09.175Z,5.5
2024-04-23T19:55:35.870Z,6.6
2024-04-23T19:58:02.556Z,6
2024-04-23T20:00:29.236Z,7
2024-04-23T20:02:55.921Z,4.8
2024-04-23T20:05:22.602Z,4.9
2024-04-23T20:07:49.295Z,7.3
2024-04-23T20:10:15.983Z,7
2024-04-23T20:12:42.660Z,8.2
2024-04-23T20:15:09.358Z,6.9
2024-04-23T20:17:36.102Z,7.9
2024-04-23T20:20:02.719Z,6.7
2024-04-23T20:22:27.920Z,6.9
2024-04-23T20:24:53.730Z,7.1
2024-04-23T20:27:20.364Z,8.3
2024-04-23T20:29:47.061Z,10.4
2024-04-23T20:32:13.724Z,9.1
2024-04-23T20:34:40.444Z,6.8
2024-04-23T20:37:07.089Z,8.8
2024-04-23T20:39:33.587Z,6.9
2024-04-23T20:42:00.340Z,8.2
2024-04-23T20:44:26.983Z,8.8
2024-04-23T20:46:53.674Z,12.6
2024-04-23T20:49:20.340Z,7.7
2024-04-23T20:51:47.017Z,6.1
2024-04-23T20:54:12.370Z,7.7
2024-04-23T20:56:38.929Z,6.2
2024-04-23T20:59:05.605Z,5.6
2024-04-23T21:01:32.331Z,6.3
2024-04-23T21:03:58.984Z,5.8
2024-04-23T21:06:25.653Z,6
2024-04-23T21:08:52.338Z,6.3
2024-04-23T21:11:19.047Z,6.7
2024-04-23T21:13:45.750Z,7.8
2024-04-23T21:16:12.393Z,7.5
2024-04-23T21:18:39.096Z,6.9
2024-04-23T21:21:05.765Z,7.1
2024-04-23T21:23:31.009Z,8.5
2024-04-23T21:25:57.690Z,8.6
2024-04-23T21:28:24.370Z,9.2
2024-04-23T21:30:51.064Z,8.4
2024-04-23T21:33:17.769Z,8.9
2024-04-23T21:35:43.461Z,7.7
2024-04-23T21:38:10.136Z,8.4
2024-04-23T21:40:36.829Z,7.1
2024-04-23T21:43:02.603Z,9.3
2024-04-23T21:45:29.294Z,9.6
2024-04-23T21:47:56.002Z,9.1
2024-04-23T21:50:22.660Z,8.1
2024-04-23T21:52:49.349Z,7.7
2024-04-23T21:55:14.567Z,9.3
2024-04-23T21:57:41.252Z,6.8
2024-04-23T22:00:07.947Z,8.6
2024-04-23T22:02:34.627Z,11.2
2024-04-23T22:05:01.310Z,9.4
2024-04-23T22:07:27.988Z,8.5
2024-04-23T22:09:54.672Z,8.4
2024-04-23T22:12:21.362Z,9.8
2024-04-23T22:14:48.041Z,8.9
2024-04-23T22:17:14.719Z,8.8
2024-04-23T22:19:41.437Z,8.1
2024-04-23T22:22:08.107Z,9.2
2024-04-23T22:24:34.783Z,7
2024-04-23T22:27:01.464Z,6.7
2024-04-23T22:29:26.692Z,7.2
2024-04-23T22:31:53.376Z,6.2
2024-04-23T22:34:20.063Z,7.4
2024-04-23T22:36:46.745Z,7.9
2024-04-23T22:39:13.444Z,5.7
2024-04-23T22:41:40.124Z,7.2
2024-04-23T22:44:06.800Z,7.4
2024-04-23T22:46:33.489Z,6.9
2024-04-23T22:49:00.166Z,6.8
2024-04-23T22:51:26.866Z,6.1
2024-04-23T22:53:53.532Z,6.1
2024-04-23T22:56:19.261Z,6.5
2024-04-23T22:58:45.946Z,7
2024-04-23T23:01:11.179Z,8.8
2024-04-23T23:03:37.862Z,7.7
2024-04-23T23:06:04.540Z,5.9
2024-04-23T23:08:31.235Z,7
2024-04-23T23:10:57.912Z,7.7
2024-04-23T23:13:24.600Z,6
2024-04-23T23:15:51.304Z,7.1
2024-04-23T23:18:18.002Z,7.7
2024-04-23T23:20:44.652Z,6.2
2024-04-23T23:23:11.341Z,6.5
2024-04-23T23:25:38.045Z,6.2
2024-04-23T23:28:04.715Z,9.4
2024-04-23T23:30:31.393Z,6.8
2024-04-23T23:32:56.607Z,6.8
2024-04-23T23:35:23.293Z,5.6
2024-04-23T23:37:49.978Z,4.9
2024-04-23T23:40:16.686Z,5.2
2024-04-23T23:42:43.359Z,7.6
2024-04-23T23:45:10.048Z,6.7
2024-04-23T23:47:36.720Z,9.5
2024-04-23T23:50:03.416Z,7.9
2024-04-23T23:52:30.095Z,6.9
2024-04-23T23:54:56.771Z,7.9
2024-04-23T23:57:23.476Z,7.8
2024-04-23T23:59:50.137Z,10.3
